createdAt,value
2022-09-16T00:02:03.030Z,100.00
2022-09-16T00:04:32.883Z,100.00
2022-09-16T00:07:02.002Z,100.00
2022-09-16T00:09:30.887Z,100.00
2022-09-16T00:11:59.708Z,100.00
2022-09-16T00:14:28.714Z,100.00
2022-09-16T00:16:57.680Z,100.00
2022-09-16T00:19:27.979Z,100.00
2022-09-16T00:21:56.945Z,100.00
2022-09-16T00:24:25.799Z,100.00
2022-09-16T00:26:54.909Z,100.00
2022-09-16T00:29:23.871Z,100.00
2022-09-16T00:31:52.819Z,100.00
2022-09-16T00:34:22.239Z,100.00
2022-09-16T00:36:52.752Z,100.00
2022-09-16T00:39:21.733Z,100.00
2022-09-16T00:41:52.740Z,100.00
2022-09-16T00:44:57.872Z,100.00
2022-09-16T00:47:38.389Z,100.00
2022-09-16T00:50:15.342Z,100.00
2022-09-16T00:52:46.310Z,100.00
2022-09-16T00:55:19.472Z,100.00
2022-09-16T00:57:49.341Z,100.00
2022-09-16T01:00:18.724Z,100.00
2022-09-16T01:02:49.685Z,100.00
2022-09-16T01:05:25.408Z,100.00
2022-09-16T01:07:56.465Z,100.00
2022-09-16T01:10:27.165Z,100.00
2022-09-16T01:12:58.582Z,100.00
2022-09-16T01:15:36.015Z,100.00
2022-09-16T01:18:21.569Z,100.00
2022-09-16T01:21:23.811Z,100.00
2022-09-16T01:24:34.411Z,100.00
2022-09-16T01:27:45.097Z,100.00
2022-09-16T01:30:41.728Z,100.00
2022-09-16T01:33:19.025Z,100.00
2022-09-16T01:35:59.468Z,100.00
2022-09-16T01:39:01.010Z,100.00
2022-09-16T01:41:39.440Z,100.00
2022-09-16T01:44:16.537Z,100.00
2022-09-16T01:46:51.934Z,100.00
2022-09-16T01:49:33.151Z,100.00
2022-09-16T01:52:14.644Z,100.00
2022-09-16T01:54:48.934Z,100.00
2022-09-16T01:57:21.184Z,100.00
2022-09-16T01:59:55.349Z,100.00
2022-09-16T02:02:33.185Z,100.00
2022-09-16T02:05:13.188Z,100.00
2022-09-16T02:07:47.698Z,100.00
2022-09-16T02:10:24.301Z,100.00
2022-09-16T02:13:06.576Z,100.00
2022-09-16T02:15:36.492Z,100.00
2022-09-16T02:18:13.388Z,100.00
2022-09-16T02:20:47.613Z,100.00
2022-09-16T02:23:23.980Z,100.00
2022-09-16T02:25:54.586Z,100.00
2022-09-16T02:28:30.810Z,100.00
2022-09-16T02:31:06.998Z,100.00
2022-09-16T02:33:41.955Z,100.00
2022-09-16T02:36:12.254Z,100.00
2022-09-16T02:38:45.559Z,100.00
2022-09-16T02:41:15.796Z,100.00
2022-09-16T02:43:46.284Z,100.00
2022-09-16T02:46:27.739Z,100.00
2022-09-16T02:49:06.076Z,100.00
2022-09-16T02:51:50.442Z,100.00
2022-09-16T02:54:25.069Z,100.00
2022-09-16T02:56:55.588Z,100.00
2022-09-16T02:59:25.441Z,100.00
2022-09-16T03:01:54.758Z,100.00
2022-09-16T03:04:25.132Z,100.00
2022-09-16T03:06:54.129Z,100.00
2022-09-16T03:09:24.283Z,100.00
2022-09-16T03:12:08.888Z,100.00
2022-09-16T03:15:11.664Z,100.00
2022-09-16T03:17:55.648Z,100.00
2022-09-16T03:20:38.213Z,100.00
2022-09-16T03:23:20.081Z,100.00
2022-09-16T03:25:58.384Z,100.00
2022-09-16T03:28:31.031Z,100.00
2022-09-16T03:31:07.443Z,100.00
2022-09-16T03:33:42.680Z,100.00
2022-09-16T03:36:17.091Z,100.00
2022-09-16T03:38:46.658Z,100.00
2022-09-16T03:41:16.878Z,100.00
2022-09-16T03:44:00.195Z,100.00
2022-09-16T03:46:32.601Z,100.00
2022-09-16T03:49:02.663Z,100.00
2022-09-16T03:51:33.202Z,100.00
2022-09-16T03:54:02.324Z,100.00
2022-09-16T03:56:31.290Z,100.00
2022-09-16T03:59:00.128Z,100.00
2022-09-16T04:01:29.086Z,100.00
2022-09-16T04:03:58.714Z,100.00
2022-09-16T04:06:27.842Z,100.00
2022-09-16T04:09:03.413Z,100.00
2022-09-16T04:11:33.193Z,100.00
2022-09-16T04:14:02.144Z,100.00
2022-09-16T04:16:31.229Z,100.00
2022-09-16T04:19:00.460Z,100.00
2022-09-16T04:21:29.409Z,100.00
2022-09-16T04:23:59.763Z,100.00
2022-09-16T04:26:28.663Z,100.00
2022-09-16T04:28:57.484Z,100.00
2022-09-16T04:31:26.566Z,100.00
2022-09-16T04:33:57.380Z,100.00
2022-09-16T04:36:26.631Z,100.00
2022-09-16T04:38:55.547Z,100.00
2022-09-16T04:41:28.082Z,100.00
2022-09-16T04:43:58.354Z,100.00
2022-09-16T04:46:28.390Z,100.00
2022-09-16T04:48:58.292Z,100.00
2022-09-16T04:51:29.091Z,100.00
2022-09-16T04:53:59.132Z,100.00
2022-09-16T04:56:31.646Z,100.00
2022-09-16T04:59:02.756Z,100.00
2022-09-16T05:01:33.753Z,100.00
2022-09-16T05:04:04.960Z,100.00
2022-09-16T05:06:35.711Z,100.00
2022-09-16T05:09:05.759Z,100.00
2022-09-16T05:11:38.206Z,100.00
2022-09-16T05:14:09.999Z,100.00
2022-09-16T05:16:39.311Z,100.00
2022-09-16T05:19:08.193Z,100.00
2022-09-16T05:21:39.240Z,100.00
2022-09-16T05:24:17.847Z,100.00
2022-09-16T05:26:52.508Z,100.00
2022-09-16T05:29:22.303Z,100.00
2022-09-16T05:32:06.137Z,100.00
2022-09-16T05:34:37.141Z,100.00
2022-09-16T05:37:06.923Z,100.00
2022-09-16T05:39:36.021Z,100.00
2022-09-16T05:42:06.779Z,100.00
2022-09-16T05:44:36.224Z,100.00
2022-09-16T05:47:07.870Z,100.00
2022-09-16T05:49:37.236Z,100.00
2022-09-16T05:52:08.118Z,100.00
2022-09-16T05:54:41.727Z,100.00
2022-09-16T05:57:12.260Z,100.00
2022-09-16T05:59:41.177Z,100.00
2022-09-16T06:02:14.056Z,100.00
2022-09-16T06:04:43.027Z,100.00
2022-09-16T06:07:13.530Z,100.00
2022-09-16T06:09:42.988Z,100.00
2022-09-16T06:12:13.678Z,100.00
2022-09-16T06:14:42.805Z,100.00
2022-09-16T06:17:12.388Z,100.00
2022-09-16T06:19:44.058Z,100.00
2022-09-16T06:22:13.142Z,100.00
2022-09-16T06:24:42.739Z,100.00
2022-09-16T06:27:13.048Z,100.00
2022-09-16T06:29:41.928Z,100.00
2022-09-16T06:32:10.954Z,100.00
2022-09-16T06:34:39.937Z,100.00
2022-09-16T06:37:14.699Z,100.00
2022-09-16T06:39:45.901Z,100.00
2022-09-16T06:42:16.293Z,100.00
2022-09-16T06:44:48.378Z,100.00
2022-09-16T06:47:17.623Z,100.00
2022-09-16T06:49:55.112Z,100.00
2022-09-16T06:52:24.317Z,100.00
2022-09-16T06:54:53.304Z,100.00
2022-09-16T06:57:24.427Z,100.00
2022-09-16T06:59:54.174Z,100.00
2022-09-16T07:02:23.876Z,98.65
2022-09-16T07:05:01.250Z,99.53
2022-09-16T07:07:32.685Z,100.00
2022-09-16T07:10:33.546Z,100.00
2022-09-16T07:13:06.132Z,97.05
2022-09-16T07:15:39.290Z,97.24
2022-09-16T07:18:21.059Z,95.95
2022-09-16T07:21:01.611Z,95.64
2022-09-16T07:23:35.774Z,96.40
2022-09-16T07:26:07.142Z,94.46
2022-09-16T07:28:38.598Z,95.62
2022-09-16T07:31:37.733Z,93.11
2022-09-16T07:34:08.935Z,91.67
2022-09-16T07:36:42.786Z,90.26
2022-09-16T07:39:12.712Z,89.74
2022-09-16T07:41:43.285Z,90.67
2022-09-16T07:44:16.953Z,89.39
2022-09-16T07:46:46.349Z,90.20
2022-09-16T07:49:17.245Z,91.45
2022-09-16T07:51:46.574Z,90.44
2022-09-16T07:54:17.321Z,91.33
2022-09-16T07:56:46.700Z,88.47
2022-09-16T07:59:19.410Z,87.30
2022-09-16T08:01:49.389Z,85.89
2022-09-16T08:04:19.054Z,83.96
2022-09-16T08:06:47.977Z,80.21
2022-09-16T08:12:08.102Z,79.38
2022-09-16T08:14:38.741Z,77.60
2022-09-16T08:17:07.693Z,76.16
2022-09-16T08:19:38.502Z,75.23
2022-09-16T08:22:07.469Z,76.77
2022-09-16T08:24:36.486Z,77.54
2022-09-16T08:27:05.571Z,76.99
2022-09-16T08:29:34.547Z,77.95
2022-09-16T08:32:05.140Z,77.75
2022-09-16T08:34:34.111Z,75.77
2022-09-16T08:37:02.898Z,71.97
2022-09-16T08:39:31.913Z,71.22
2022-09-16T08:42:31.786Z,72.15
2022-09-16T08:45:20.729Z,68.62
2022-09-16T08:48:11.339Z,69.46
2022-09-16T08:50:44.332Z,70.69
2022-09-16T08:53:17.458Z,67.66
2022-09-16T08:55:51.057Z,67.63
2022-09-16T08:58:24.244Z,66.72
2022-09-16T09:00:59.812Z,66.90
2022-09-16T09:03:38.953Z,67.19
2022-09-16T09:06:21.942Z,67.07
2022-09-16T09:09:01.814Z,67.35
2022-09-16T09:11:40.406Z,68.42
2022-09-16T09:14:29.966Z,68.70
2022-09-16T09:17:10.871Z,66.58
2022-09-16T09:20:01.191Z,66.17
2022-09-16T09:23:01.882Z,64.95
2022-09-16T09:25:44.328Z,60.83
2022-09-16T09:28:54.645Z,61.99
2022-09-16T09:31:41.786Z,62.27
2022-09-16T09:34:31.550Z,63.65
2022-09-16T09:37:27.172Z,63.64
2022-09-16T09:40:11.042Z,63.82
2022-09-16T09:42:47.389Z,64.71
2022-09-16T09:45:24.778Z,65.33
2022-09-16T09:48:02.293Z,65.15
2022-09-16T09:50:41.714Z,65.44
2022-09-16T09:53:21.633Z,61.30
2022-09-16T09:55:58.908Z,62.04
2022-09-16T09:58:38.383Z,62.67
2022-09-16T10:01:07.663Z,63.90
2022-09-16T10:03:38.070Z,64.77
2022-09-16T10:06:07.425Z,64.12
2022-09-16T10:08:47.808Z,62.73
2022-09-16T10:11:20.550Z,61.82
2022-09-16T10:13:51.910Z,61.21
2022-09-16T10:16:26.564Z,58.75
2022-09-16T10:19:02.901Z,57.17
2022-09-16T10:21:43.702Z,58.09
2022-09-16T10:24:35.250Z,56.89
2022-09-16T10:27:20.646Z,57.76
2022-09-16T10:29:49.937Z,56.14
2022-09-16T10:32:20.935Z,56.06
2022-09-16T10:34:50.008Z,54.54
2022-09-16T10:37:21.075Z,52.87
2022-09-16T10:39:57.718Z,52.30
2022-09-16T10:42:29.244Z,53.60
2022-09-16T10:45:06.251Z,56.34
2022-09-16T10:47:36.433Z,58.94
2022-09-16T10:50:08.498Z,63.48
2022-09-16T10:52:45.913Z,65.63
2022-09-16T10:55:25.596Z,65.03
2022-09-16T10:57:55.657Z,64.58
2022-09-16T11:00:28.950Z,63.29
2022-09-16T11:03:49.598Z,63.66
2022-09-16T11:06:44.362Z,63.04
2022-09-16T11:09:22.354Z,61.73
2022-09-16T11:12:26.416Z,61.72
2022-09-16T11:15:01.737Z,62.71
2022-09-16T11:17:53.313Z,61.23
2022-09-16T11:21:06.554Z,58.42
2022-09-16T11:23:57.481Z,53.86
2022-09-16T11:26:44.896Z,53.20
2022-09-16T11:29:53.603Z,52.93
2022-09-16T11:32:38.713Z,54.42
2022-09-16T11:35:36.064Z,54.96
2022-09-16T11:38:17.776Z,58.44
2022-09-16T11:40:57.682Z,57.26
2022-09-16T11:43:54.926Z,56.86
2022-09-16T11:46:35.269Z,55.10
2022-09-16T11:49:36.368Z,58.13
2022-09-16T11:52:30.272Z,57.22
2022-09-16T11:55:30.990Z,55.93
2022-09-16T11:58:13.406Z,59.30
2022-09-16T12:00:43.421Z,60.11
2022-09-16T12:03:25.064Z,61.11
2022-09-16T12:06:04.633Z,61.96
2022-09-16T12:08:46.204Z,64.01
2022-09-16T12:11:27.190Z,64.70
2022-09-16T12:14:14.657Z,65.35
2022-09-16T12:16:51.560Z,65.99
2022-09-16T12:19:28.126Z,66.10
2022-09-16T12:22:05.507Z,68.26
2022-09-16T12:24:43.978Z,68.98
2022-09-16T12:27:35.316Z,68.31
2022-09-16T12:30:13.192Z,66.66
2022-09-16T12:32:53.647Z,65.42
2022-09-16T12:35:33.053Z,63.64
2022-09-16T12:38:02.236Z,62.37
2022-09-16T12:40:42.757Z,60.97
2022-09-16T12:44:17.460Z,59.87
2022-09-16T12:47:57.159Z,58.50
2022-09-16T12:51:24.687Z,58.14
2022-09-16T12:54:51.334Z,60.15
2022-09-16T12:57:49.075Z,61.80
2022-09-16T13:00:23.270Z,65.02
2022-09-16T13:02:56.405Z,64.70
2022-09-16T13:05:33.418Z,64.90
2022-09-16T13:08:08.666Z,65.17
2022-09-16T13:10:56.265Z,64.37
2022-09-16T13:13:35.677Z,65.01
2022-09-16T13:16:08.162Z,66.03
2022-09-16T13:18:44.885Z,64.97
2022-09-16T13:21:27.335Z,64.33
2022-09-16T13:24:06.542Z,61.43
2022-09-16T13:26:46.928Z,62.16
2022-09-16T13:29:44.380Z,55.35
2022-09-16T13:32:38.667Z,50.82
2022-09-16T13:35:36.168Z,52.27
2022-09-16T13:38:25.820Z,54.24
2022-09-16T13:41:01.234Z,55.46
2022-09-16T13:43:37.425Z,50.31
2022-09-16T13:46:16.357Z,48.00
2022-09-16T13:48:56.506Z,47.76
2022-09-16T13:51:25.966Z,47.89
2022-09-16T13:54:00.132Z,48.12
2022-09-16T13:56:53.164Z,48.25
2022-09-16T13:59:43.796Z,48.47
2022-09-16T14:02:24.052Z,48.83
2022-09-16T14:05:14.977Z,49.65
2022-09-16T14:07:57.611Z,47.39
2022-09-16T14:10:41.869Z,44.82
2022-09-16T14:13:16.967Z,45.60
2022-09-16T14:15:50.679Z,44.41
2022-09-16T14:18:25.431Z,43.92
2022-09-16T14:21:02.271Z,44.08
2022-09-16T14:23:34.201Z,44.13
2022-09-16T14:26:13.830Z,45.07
2022-09-16T14:28:44.394Z,46.96
2022-09-16T14:31:20.295Z,44.91
2022-09-16T14:33:56.772Z,45.91
2022-09-16T14:36:35.205Z,45.03
2022-09-16T14:39:13.983Z,44.67
2022-09-16T14:41:49.970Z,44.69
2022-09-16T14:44:33.909Z,45.17
2022-09-16T14:47:21.816Z,45.37
2022-09-16T14:50:08.395Z,45.48
2022-09-16T14:52:37.735Z,45.40
2022-09-16T14:55:15.596Z,44.95
2022-09-16T14:57:44.849Z,44.91
2022-09-16T15:00:20.277Z,44.48
2022-09-16T15:02:56.854Z,45.73
2022-09-16T15:05:32.593Z,46.47
2022-09-16T15:08:14.857Z,46.63
2022-09-16T15:10:52.912Z,46.94
2022-09-16T15:13:27.450Z,46.68
2022-09-16T15:16:04.395Z,45.64
2022-09-16T15:18:37.459Z,44.64
2022-09-16T15:21:13.707Z,43.79
2022-09-16T15:23:47.032Z,43.75
2022-09-16T15:26:18.095Z,43.28
2022-09-16T15:28:58.125Z,44.13
2022-09-16T15:31:40.806Z,44.05
2022-09-16T15:34:23.225Z,45.17
2022-09-16T15:37:00.177Z,44.44
2022-09-16T15:39:33.696Z,44.08
2022-09-16T15:42:13.645Z,44.69
2022-09-16T15:44:49.245Z,44.55
2022-09-16T15:47:27.266Z,44.09
2022-09-16T15:50:06.982Z,45.15
2022-09-16T15:52:55.542Z,45.90
2022-09-16T15:55:35.825Z,46.87
2022-09-16T15:58:10.852Z,47.21
2022-09-16T16:01:11.654Z,47.77
2022-09-16T16:03:55.877Z,48.02
2022-09-16T16:06:48.345Z,49.63
2022-09-16T16:09:40.111Z,50.42
2022-09-16T16:12:11.329Z,51.38
2022-09-16T16:14:41.903Z,52.60
2022-09-16T16:17:14.668Z,54.88
2022-09-16T16:19:48.487Z,56.14
2022-09-16T16:22:18.135Z,55.28
2022-09-16T16:24:47.127Z,58.74
2022-09-16T16:27:16.186Z,59.27
2022-09-16T16:29:45.287Z,60.13
2022-09-16T16:32:16.490Z,62.20
2022-09-16T16:34:50.172Z,64.90
2022-09-16T16:37:44.886Z,66.45
2022-09-16T16:40:12.342Z,69.06
2022-09-16T16:42:43.688Z,68.18
2022-09-16T16:45:14.192Z,70.21
2022-09-16T16:47:43.391Z,68.79
2022-09-16T16:50:13.735Z,69.77
2022-09-16T16:52:44.512Z,69.78
2022-09-16T16:55:13.558Z,72.20
2022-09-16T16:57:42.654Z,72.16
2022-09-16T17:00:14.098Z,73.86
2022-09-16T17:02:44.665Z,73.55
2022-09-16T17:05:15.356Z,73.34
2022-09-16T17:07:47.426Z,74.20
2022-09-16T17:10:16.436Z,75.72
2022-09-16T17:12:53.197Z,75.43
2022-09-16T17:15:22.513Z,77.37
2022-09-16T17:17:51.690Z,77.14
2022-09-16T17:20:26.571Z,77.41
2022-09-16T17:22:55.443Z,77.05
2022-09-16T17:25:24.405Z,78.05
2022-09-16T17:27:53.424Z,77.99
2022-09-16T17:30:22.596Z,79.03
2022-09-16T17:32:52.335Z,78.21
2022-09-16T17:35:23.023Z,77.52
2022-09-16T17:37:52.230Z,77.56
2022-09-16T17:40:22.027Z,77.99
2022-09-16T17:42:53.291Z,78.55
2022-09-16T17:45:25.164Z,78.64
2022-09-16T17:47:54.582Z,78.54
2022-09-16T17:50:24.969Z,81.79
2022-09-16T17:52:54.402Z,80.55
2022-09-16T17:55:23.345Z,80.18
2022-09-16T17:57:52.463Z,82.43
2022-09-16T18:00:21.504Z,85.98
2022-09-16T18:02:50.475Z,85.21
2022-09-16T18:05:20.007Z,86.29
2022-09-16T18:07:50.448Z,87.45
2022-09-16T18:10:19.582Z,88.59
2022-09-16T18:12:48.554Z,91.49
2022-09-16T18:15:17.819Z,92.75
2022-09-16T18:17:47.049Z,91.82
2022-09-16T18:20:51.271Z,94.93
2022-09-16T18:23:28.941Z,97.28
2022-09-16T18:25:58.459Z,96.60
2022-09-16T18:28:28.364Z,95.47
2022-09-16T18:31:04.899Z,96.91
2022-09-16T18:33:34.136Z,97.50
2022-09-16T18:36:05.075Z,98.69
2022-09-16T18:38:37.044Z,98.74
2022-09-16T18:41:08.678Z,98.17
2022-09-16T18:43:38.325Z,99.46
2022-09-16T18:46:14.148Z,100.00
2022-09-16T18:48:44.911Z,99.44
2022-09-16T18:51:19.114Z,99.35
2022-09-16T18:53:51.425Z,99.49
2022-09-16T18:56:22.833Z,98.58
2022-09-16T18:59:21.551Z,98.59
2022-09-16T19:01:51.911Z,98.15
2022-09-16T19:04:23.355Z,99.77
2022-09-16T19:06:54.934Z,98.94
2022-09-16T19:09:26.532Z,99.49
2022-09-16T19:11:56.340Z,99.77
2022-09-16T19:14:27.662Z,100.00
2022-09-16T19:16:57.689Z,100.00
2022-09-16T19:19:29.344Z,99.92
2022-09-16T19:21:58.676Z,100.00
2022-09-16T19:24:32.770Z,100.00
2022-09-16T19:27:01.771Z,100.00
2022-09-16T19:29:32.650Z,100.00
2022-09-16T19:32:02.430Z,100.00
2022-09-16T19:34:34.713Z,100.00
2022-09-16T19:37:04.331Z,100.00
2022-09-16T19:39:34.800Z,100.00
2022-09-16T19:42:07.722Z,100.00
2022-09-16T19:44:36.897Z,100.00
2022-09-16T19:47:06.045Z,100.00
2022-09-16T19:49:35.237Z,100.00
2022-09-16T19:52:04.570Z,100.00
2022-09-16T19:54:35.418Z,100.00
2022-09-16T19:57:07.516Z,100.00
2022-09-16T19:59:36.592Z,100.00
2022-09-16T20:02:06.690Z,100.00
2022-09-16T20:04:35.703Z,100.00
2022-09-16T20:07:05.830Z,100.00
2022-09-16T20:09:36.359Z,100.00
2022-09-16T20:12:05.478Z,100.00
2022-09-16T20:14:34.964Z,100.00
2022-09-16T20:17:05.179Z,100.00
2022-09-16T20:19:34.589Z,100.00
2022-09-16T20:22:03.519Z,100.00
2022-09-16T20:24:32.564Z,100.00
2022-09-16T20:27:03.124Z,100.00
2022-09-16T20:29:32.182Z,100.00
2022-09-16T20:32:01.191Z,100.00
2022-09-16T20:34:30.190Z,100.00
2022-09-16T20:36:59.246Z,100.00
2022-09-16T20:39:53.513Z,100.00
2022-09-16T20:42:24.269Z,100.00
2022-09-16T20:44:53.743Z,100.00
2022-09-16T20:47:23.311Z,100.00
2022-09-16T20:49:52.403Z,100.00
2022-09-16T20:52:21.739Z,100.00
2022-09-16T20:54:51.446Z,100.00
2022-09-16T20:57:20.723Z,100.00
2022-09-16T20:59:51.720Z,100.00
2022-09-16T21:02:21.629Z,100.00
2022-09-16T21:04:51.249Z,100.00
2022-09-16T21:07:21.395Z,100.00
2022-09-16T21:09:50.335Z,100.00
2022-09-16T21:12:19.599Z,99.48
2022-09-16T21:14:55.309Z,97.25
2022-09-16T21:17:24.251Z,95.00
2022-09-16T21:19:53.294Z,94.13
2022-09-16T21:22:24.342Z,91.51
2022-09-16T21:24:53.402Z,92.30
2022-09-16T21:27:22.740Z,90.67
2022-09-16T21:29:53.016Z,87.53
2022-09-16T21:32:22.297Z,88.77
2022-09-16T21:34:53.104Z,88.63
2022-09-16T21:37:22.874Z,88.26
2022-09-16T21:39:51.767Z,87.82
2022-09-16T21:42:20.871Z,87.67
2022-09-16T21:44:49.933Z,87.07
2022-09-16T21:47:20.324Z,87.44
2022-09-16T21:49:50.015Z,87.33
2022-09-16T21:52:19.231Z,86.78
2022-09-16T21:54:48.240Z,86.81
2022-09-16T21:57:17.402Z,86.42
2022-09-16T21:59:46.240Z,85.42
2022-09-16T22:02:16.064Z,86.06
2022-09-16T22:04:46.538Z,85.88
2022-09-16T22:07:15.442Z,85.03
2022-09-16T22:09:44.314Z,84.25
2022-09-16T22:12:13.252Z,84.22
2022-09-16T22:14:42.352Z,84.10
2022-09-16T22:17:11.687Z,84.04
2022-09-16T22:19:41.175Z,83.61
2022-09-16T22:22:11.592Z,83.79
2022-09-16T22:24:40.514Z,83.70
2022-09-16T22:27:09.410Z,83.42
2022-09-16T22:29:38.280Z,82.08
2022-09-16T22:32:07.480Z,82.66
2022-09-16T22:34:37.067Z,82.62
2022-09-16T22:37:05.942Z,82.79
2022-09-16T22:39:36.261Z,82.91
2022-09-16T22:42:05.340Z,81.75
2022-09-16T22:44:34.622Z,82.27
2022-09-16T22:47:03.690Z,82.20
2022-09-16T22:49:32.608Z,82.13
2022-09-16T22:52:01.604Z,82.01
2022-09-16T22:54:30.485Z,82.08
2022-09-16T22:57:00.759Z,81.02
2022-09-16T22:59:29.996Z,81.00
2022-09-16T23:01:59.129Z,80.75
2022-09-16T23:04:28.576Z,80.91
2022-09-16T23:06:57.552Z,80.43
2022-09-16T23:09:26.632Z,80.21
2022-09-16T23:11:55.586Z,80.66
2022-09-16T23:14:26.687Z,79.26
2022-09-16T23:16:56.059Z,79.55
2022-09-16T23:19:25.133Z,78.98
2022-09-16T23:21:54.166Z,78.91
2022-09-16T23:24:23.940Z,78.77
2022-09-16T23:26:53.025Z,78.08
2022-09-16T23:29:22.091Z,78.56
2022-09-16T23:31:52.398Z,78.82
2022-09-16T23:34:22.692Z,79.50
2022-09-16T23:36:52.093Z,80.80
2022-09-16T23:39:21.186Z,80.67
2022-09-16T23:41:51.373Z,81.95
2022-09-16T23:44:20.642Z,83.58
2022-09-16T23:46:51.229Z,85.02
2022-09-16T23:49:27.297Z,85.85
2022-09-16T23:51:56.772Z,85.74
2022-09-16T23:54:26.018Z,86.94
2022-09-16T23:56:55.000Z,87.95
2022-09-16T23:59:23.829Z,88.29
